Buoy 44863

sailwx.info

Track history (hours):
 
Tides and Currents Weather Stations Pressure Air Temp Water Temp Dewpoint Dewpoint Depression Visibility Wind Speed Wind Dir Waves Ship Positions

Drifting buoy 44863

Last reported at 2017-Oct-22 15:00 UTC. Time now 2017-Oct-22 15:45 UTC.
Position N 28°51' W 075°26'.

Barometer 1023.0 mb
Water temperature 27.1 ° C

Date/timePositionNaut miles runAvg speedWind from/ knotsBaromVisibWave heightAir tempDewpointWater temp
2017-Oct-22 15:00N 28°51' W 075°26'1 1.3 1023.0 27.1
2017-Oct-22 14:00N 28°50' W 075°26'1 0.8 1023.1 27.1
2017-Oct-22 13:00N 28°49' W 075°25'1 1.2 1022.7 27.1
2017-Oct-22 12:00N 28°48' W 075°25'1 0.8 1022.0 27.1
2017-Oct-22 11:00N 28°47' W 075°25'1 1.3 1021.5 27.1
2017-Oct-22 10:00N 28°46' W 075°24'1 1.2 1021.4 27.1
2017-Oct-22 09:00N 28°46' W 075°23'1 1.3 1020.7 27.1
2017-Oct-22 08:00N 28°44' W 075°22'2 1.6 1020.6 27.1
2017-Oct-22 07:00N 28°43' W 075°21'1 1.2 1020.7 27.2
2017-Oct-22 06:00N 28°43' W 075°20'1 0.8 1021.3 27.1
2017-Oct-22 05:00N 28°42' W 075°19'1 0.8 1021.8 27.1
2017-Oct-22 04:00N 28°41' W 075°19'2 1.6 1022.0 27.2
2017-Oct-22 03:00N 28°40' W 075°17'1 0.8 1022.0 27.1
2017-Oct-22 02:00N 28°40' W 075°17'1 0.8 1021.6 27.1
2017-Oct-22 01:00N 28°39' W 075°16'2 1.6 1021.3 27.1
2017-Oct-22 00:00N 28°38' W 075°15'2 1.6 1021.2 27.1
2017-Oct-21 23:00N 28°37' W 075°14'1 1.2 1020.7 27.1
2017-Oct-21 22:00N 28°36' W 075°13'2 2.0 1020.2 27.1
2017-Oct-21 21:00N 28°35' W 075°11'1 1.2 1020.2 27.2
2017-Oct-21 20:00N 28°34' W 075°10'1 1.2 1020.1 27.2
2017-Oct-21 19:00N 28°34' W 075°08'2 1.6 1019.9 27.2
2017-Oct-21 18:00N 28°32' W 075°07'1 1.2 1020.1 27.3
2017-Oct-21 17:00N 28°32' W 075°06'1 1.2 1020.6 27.2
2017-Oct-21 16:00N 28°31' W 075°05'1 1.2 1021.0 27.2
2017-Oct-21 15:00N 28°31' W 075°04'2 1.7 1021.1 27.2
2017-Oct-21 14:00N 28°30' W 075°02'2 2.0 1021.0 27.2
2017-Oct-21 13:00N 28°29' W 075°00'1 1.2 1020.3 27.2
2017-Oct-21 12:00N 28°28' W 074°59'2 2.0 1019.4 27.2
2017-Oct-21 11:00N 28°27' W 074°57'1 1.2 1018.9 27.2
2017-Oct-21 10:00N 28°26' W 074°56'2 1.6 1018.4 27.2
2017-Oct-21 09:00N 28°25' W 074°55'2 1.7 1018.1 27.2
2017-Oct-21 08:00N 28°25' W 074°53'2 2.0 1017.9 27.3
2017-Oct-21 07:00N 28°23' W 074°51'2 1.6 1018.1 27.3
2017-Oct-21 06:00N 28°22' W 074°50'2 2.0 1018.6 27.3
2017-Oct-21 05:00N 28°21' W 074°48'2 1.7 1018.9 27.2
2017-Oct-21 04:00N 28°20' W 074°46'2 2.0 1019.0 27.2
2017-Oct-21 03:00N 28°19' W 074°44'2 2.0 1018.7 27.2
2017-Oct-21 02:00N 28°18' W 074°43'2 1.7 1018.4 27.2
2017-Oct-21 01:00N 28°17' W 074°41'2 1.7 1018.4 27.2
2017-Oct-21 00:00N 28°17' W 074°39'2 1.7 1017.9 27.2
2017-Oct-20 23:00N 28°16' W 074°37'2 2.0 1017.5 27.2
2017-Oct-20 22:00N 28°15' W 074°35'2 1.7 1017.1 27.2
2017-Oct-20 21:00N 28°14' W 074°34'2 1.7 1016.9 27.3
2017-Oct-20 20:00N 28°14' W 074°32'2 1.7 1017.0 27.3
2017-Oct-20 19:00N 28°13' W 074°30'2 1.7 1017.0 27.3
2017-Oct-20 18:00N 28°13' W 074°28'2 2.2 1017.5 27.4
2017-Oct-20 17:00N 28°12' W 074°26'2 1.7 1018.2 27.4
2017-Oct-20 16:00N 28°11' W 074°24'2 1.6 1018.4 27.4
2017-Oct-20 15:00N 28°11' W 074°22'2 1.7 1018.5 27.3
2017-Oct-20 14:00N 28°11' W 074°20'2 1.6 1018.4 27.2
2017-Oct-20 13:00N 28°11' W 074°19'2 1.7 1018.0 27.2
2017-Oct-20 12:00N 28°10' W 074°17'2 1.6 1017.3 27.2
2017-Oct-20 11:00N 28°10' W 074°15'1 1.1 1016.9 27.2
2017-Oct-20 10:00N 28°10' W 074°14'2 1.7 1016.4 27.2
2017-Oct-20 09:00N 28°10' W 074°12'2 1.7 1016.0 27.2
2017-Oct-20 08:00N 28°09' W 074°10'1 1.1 1016.0 27.2
2017-Oct-20 07:00N 28°09' W 074°09'2 1.6 1015.8 27.2
2017-Oct-20 06:00N 28°09' W 074°07'2 1.6 1016.0 27.2
2017-Oct-20 05:00N 28°09' W 074°05'1 1.2 1016.3 27.2
2017-Oct-20 04:00N 28°08' W 074°04'2 1.7 1016.6 27.2
2017-Oct-20 03:00N 28°09' W 074°02'2 1.6 1016.7 27.2
2017-Oct-20 02:00N 28°09' W 074°01'2 1.7 1016.2 27.2
2017-Oct-20 01:00N 28°10' W 073°59'1 1.2 1015.8 27.1
2017-Oct-20 00:00N 28°10' W 073°58'1 1.2 1015.3 27.1
2017-Oct-19 23:00N 28°11' W 073°56'1 1.1 1015.1 27.1
2017-Oct-19 22:00N 28°11' W 073°55'1 1.2 1015.0 27.1
2017-Oct-19 21:00N 28°11' W 073°54'3 1.4 1014.7 27.2
2017-Oct-19 19:00N 28°12' W 073°51'1 1.2 1014.7 27.2
2017-Oct-19 18:00N 28°13' W 073°50'10 0.9 1015.0 27.3
2017-Oct-19 07:00N 28°19' W 073°40'   1015.1 27.0
2017-Oct-15 07:00N 28°53' W 073°53'   1017.2 27.0
Track history (hours):
 
Tides and Currents Weather Stations Pressure Air Temp Water Temp Dewpoint Dewpoint Depression Visibility Wind Speed Wind Dir Waves Ship Positions

Drifting buoy 44863

Last reported at 2017-Oct-22 15:00 UTC. Time now 2017-Oct-22 15:45 UTC.
Position N 28°51' W 075°26'.

Barometer 1023.0 mb
Water temperature 27.1 ° C

Date/timePositionNaut miles runAvg speedWind from/ knotsBaromVisibWave heightAir tempDewpointWater temp
2017-Oct-22 15:00N 28°51' W 075°26'1 1.3 1023.0 27.1
2017-Oct-22 14:00N 28°50' W 075°26'1 0.8 1023.1 27.1
2017-Oct-22 13:00N 28°49' W 075°25'1 1.2 1022.7 27.1
2017-Oct-22 12:00N 28°48' W 075°25'1 0.8 1022.0 27.1
2017-Oct-22 11:00N 28°47' W 075°25'1 1.3 1021.5 27.1
2017-Oct-22 10:00N 28°46' W 075°24'1 1.2 1021.4 27.1
2017-Oct-22 09:00N 28°46' W 075°23'1 1.3 1020.7 27.1
2017-Oct-22 08:00N 28°44' W 075°22'2 1.6 1020.6 27.1
2017-Oct-22 07:00N 28°43' W 075°21'1 1.2 1020.7 27.2
2017-Oct-22 06:00N 28°43' W 075°20'1 0.8 1021.3 27.1
2017-Oct-22 05:00N 28°42' W 075°19'1 0.8 1021.8 27.1
2017-Oct-22 04:00N 28°41' W 075°19'2 1.6 1022.0 27.2
2017-Oct-22 03:00N 28°40' W 075°17'1 0.8 1022.0 27.1
2017-Oct-22 02:00N 28°40' W 075°17'1 0.8 1021.6 27.1
2017-Oct-22 01:00N 28°39' W 075°16'2 1.6 1021.3 27.1
2017-Oct-22 00:00N 28°38' W 075°15'2 1.6 1021.2 27.1
2017-Oct-21 23:00N 28°37' W 075°14'1 1.2 1020.7 27.1
2017-Oct-21 22:00N 28°36' W 075°13'2 2.0 1020.2 27.1
2017-Oct-21 21:00N 28°35' W 075°11'1 1.2 1020.2 27.2
2017-Oct-21 20:00N 28°34' W 075°10'1 1.2 1020.1 27.2
2017-Oct-21 19:00N 28°34' W 075°08'2 1.6 1019.9 27.2
2017-Oct-21 18:00N 28°32' W 075°07'1 1.2 1020.1 27.3
2017-Oct-21 17:00N 28°32' W 075°06'1 1.2 1020.6 27.2
2017-Oct-21 16:00N 28°31' W 075°05'1 1.2 1021.0 27.2
2017-Oct-21 15:00N 28°31' W 075°04'2 1.7 1021.1 27.2
2017-Oct-21 14:00N 28°30' W 075°02'2 2.0 1021.0 27.2
2017-Oct-21 13:00N 28°29' W 075°00'1 1.2 1020.3 27.2
2017-Oct-21 12:00N 28°28' W 074°59'2 2.0 1019.4 27.2
2017-Oct-21 11:00N 28°27' W 074°57'1 1.2 1018.9 27.2
2017-Oct-21 10:00N 28°26' W 074°56'2 1.6 1018.4 27.2
2017-Oct-21 09:00N 28°25' W 074°55'2 1.7 1018.1 27.2
2017-Oct-21 08:00N 28°25' W 074°53'2 2.0 1017.9 27.3
2017-Oct-21 07:00N 28°23' W 074°51'2 1.6 1018.1 27.3
2017-Oct-21 06:00N 28°22' W 074°50'2 2.0 1018.6 27.3
2017-Oct-21 05:00N 28°21' W 074°48'2 1.7 1018.9 27.2
2017-Oct-21 04:00N 28°20' W 074°46'2 2.0 1019.0 27.2
2017-Oct-21 03:00N 28°19' W 074°44'2 2.0 1018.7 27.2
2017-Oct-21 02:00N 28°18' W 074°43'2 1.7 1018.4 27.2
2017-Oct-21 01:00N 28°17' W 074°41'2 1.7 1018.4 27.2
2017-Oct-21 00:00N 28°17' W 074°39'2 1.7 1017.9 27.2
2017-Oct-20 23:00N 28°16' W 074°37'2 2.0 1017.5 27.2
2017-Oct-20 22:00N 28°15' W 074°35'2 1.7 1017.1 27.2
2017-Oct-20 21:00N 28°14' W 074°34'2 1.7 1016.9 27.3
2017-Oct-20 20:00N 28°14' W 074°32'2 1.7 1017.0 27.3
2017-Oct-20 19:00N 28°13' W 074°30'2 1.7 1017.0 27.3
2017-Oct-20 18:00N 28°13' W 074°28'2 2.2 1017.5 27.4
2017-Oct-20 17:00N 28°12' W 074°26'2 1.7 1018.2 27.4
2017-Oct-20 16:00N 28°11' W 074°24'2 1.6 1018.4 27.4
2017-Oct-20 15:00N 28°11' W 074°22'2 1.7 1018.5 27.3
2017-Oct-20 14:00N 28°11' W 074°20'2 1.6 1018.4 27.2
2017-Oct-20 13:00N 28°11' W 074°19'2 1.7 1018.0 27.2
2017-Oct-20 12:00N 28°10' W 074°17'2 1.6 1017.3 27.2
2017-Oct-20 11:00N 28°10' W 074°15'1 1.1 1016.9 27.2
2017-Oct-20 10:00N 28°10' W 074°14'2 1.7 1016.4 27.2
2017-Oct-20 09:00N 28°10' W 074°12'2 1.7 1016.0 27.2
2017-Oct-20 08:00N 28°09' W 074°10'1 1.1 1016.0 27.2
2017-Oct-20 07:00N 28°09' W 074°09'2 1.6 1015.8 27.2
2017-Oct-20 06:00N 28°09' W 074°07'2 1.6 1016.0 27.2
2017-Oct-20 05:00N 28°09' W 074°05'1 1.2 1016.3 27.2
2017-Oct-20 04:00N 28°08' W 074°04'2 1.7 1016.6 27.2
2017-Oct-20 03:00N 28°09' W 074°02'2 1.6 1016.7 27.2
2017-Oct-20 02:00N 28°09' W 074°01'2 1.7 1016.2 27.2
2017-Oct-20 01:00N 28°10' W 073°59'1 1.2 1015.8 27.1
2017-Oct-20 00:00N 28°10' W 073°58'1 1.2 1015.3 27.1
2017-Oct-19 23:00N 28°11' W 073°56'1 1.1 1015.1 27.1
2017-Oct-19 22:00N 28°11' W 073°55'1 1.2 1015.0 27.1
2017-Oct-19 21:00N 28°11' W 073°54'3 1.4 1014.7 27.2
2017-Oct-19 19:00N 28°12' W 073°51'1 1.2 1014.7 27.2
2017-Oct-19 18:00N 28°13' W 073°50'10 0.9 1015.0 27.3
2017-Oct-19 07:00N 28°19' W 073°40'   1015.1 27.0
2017-Oct-15 07:00N 28°53' W 073°53'   1017.2 27.0

Dump ship's entire track history